createdAt,value
2023-08-14T00:04:37.244Z,23.40
2023-08-14T00:09:40.701Z,22.57
2023-08-14T00:14:44.170Z,23.14
2023-08-14T00:19:47.492Z,23.35
2023-08-14T00:24:50.993Z,22.14
2023-08-14T00:29:54.521Z,22.69
2023-08-14T00:34:58.023Z,22.53
2023-08-14T00:40:01.617Z,22.95
2023-08-14T00:45:05.476Z,22.88
2023-08-14T00:50:10.037Z,21.92
2023-08-14T00:55:21.436Z,22.91
2023-08-14T01:00:25.892Z,22.92
2023-08-14T01:05:29.516Z,22.45
2023-08-14T01:10:51.014Z,22.37
2023-08-14T01:15:59.129Z,22.50
2023-08-14T01:21:14.697Z,22.73
2023-08-14T01:26:18.095Z,21.60
2023-08-14T01:31:21.552Z,22.44
2023-08-14T01:36:42.630Z,22.95
2023-08-14T01:41:51.822Z,22.62
2023-08-14T01:46:58.568Z,22.64
2023-08-14T01:52:02.920Z,20.68
2023-08-14T01:57:07.252Z,21.34
2023-08-14T02:02:12.357Z,21.79
2023-08-14T02:07:15.724Z,21.73
2023-08-14T02:12:19.449Z,21.76
2023-08-14T02:17:23.704Z,21.17
2023-08-14T02:22:27.281Z,21.58
2023-08-14T02:27:31.184Z,21.74
2023-08-14T02:32:34.576Z,22.04
2023-08-14T02:37:38.198Z,21.03
2023-08-14T02:42:41.541Z,21.73
2023-08-14T02:47:45.075Z,21.41
2023-08-14T02:52:48.664Z,21.20
2023-08-14T02:57:52.267Z,21.71
2023-08-14T03:02:55.835Z,21.40
2023-08-14T03:08:00.165Z,21.35
2023-08-14T03:13:03.738Z,20.98
2023-08-14T03:18:07.263Z,21.16
2023-08-14T03:23:10.640Z,20.80
2023-08-14T03:28:14.125Z,20.51
2023-08-14T03:33:17.688Z,20.69
2023-08-14T03:38:21.557Z,20.73
2023-08-14T03:43:24.961Z,21.26
2023-08-14T03:48:28.479Z,21.66
2023-08-14T03:53:32.703Z,21.36
2023-08-14T03:58:36.247Z,21.36
2023-08-14T04:03:39.841Z,20.70
2023-08-14T04:08:43.492Z,21.85
2023-08-14T04:13:47.222Z,22.03
2023-08-14T04:18:50.874Z,21.52
2023-08-14T04:23:54.294Z,20.35
2023-08-14T04:28:57.732Z,21.63
2023-08-14T04:34:01.392Z,21.94
2023-08-14T04:39:06.230Z,21.05
2023-08-14T04:44:09.615Z,21.94
2023-08-14T04:49:13.128Z,21.95
2023-08-14T04:54:16.572Z,21.89
2023-08-14T04:59:20.096Z,22.09
2023-08-14T05:04:24.262Z,21.41
2023-08-14T05:09:28.186Z,22.04
2023-08-14T05:14:32.297Z,21.97
2023-08-14T05:19:35.700Z,21.96
2023-08-14T05:24:39.154Z,20.97
2023-08-14T05:29:42.727Z,21.82
2023-08-14T05:34:46.429Z,21.17
2023-08-14T05:39:50.267Z,22.17
2023-08-14T05:44:53.598Z,21.47
2023-08-14T05:49:57.128Z,22.61
2023-08-14T05:55:01.076Z,22.80
2023-08-14T06:00:05.412Z,22.94
2023-08-14T06:05:10.349Z,23.13
2023-08-14T06:10:13.832Z,23.11
2023-08-14T06:15:18.585Z,23.35
2023-08-14T06:20:22.357Z,23.59
2023-08-14T06:25:27.404Z,23.90
2023-08-14T06:30:31.830Z,24.05
2023-08-14T06:35:35.042Z,24.37
2023-08-14T06:40:38.451Z,24.46
2023-08-14T06:45:41.803Z,24.37
2023-08-14T06:50:45.243Z,24.67
2023-08-14T06:55:49.223Z,25.00
2023-08-14T07:00:52.766Z,25.02
2023-08-14T07:05:56.656Z,24.78
2023-08-14T07:11:00.240Z,25.25
2023-08-14T07:16:04.010Z,25.57
2023-08-14T07:21:08.000Z,25.64
2023-08-14T07:26:13.880Z,25.77
2023-08-14T07:31:17.499Z,26.03
2023-08-14T07:36:21.020Z,26.25
2023-08-14T07:41:24.604Z,25.99
2023-08-14T07:46:27.922Z,26.02
2023-08-14T07:51:31.391Z,25.99
2023-08-14T07:56:35.551Z,26.42
2023-08-14T08:01:38.923Z,26.67
2023-08-14T08:06:44.540Z,26.32
2023-08-14T08:11:50.344Z,26.05
2023-08-14T08:16:54.106Z,25.71
2023-08-14T08:21:57.528Z,26.57
2023-08-14T08:27:00.832Z,26.95
2023-08-14T08:32:04.344Z,27.53
2023-08-14T08:37:08.127Z,27.33
2023-08-14T08:42:11.959Z,27.70
2023-08-14T08:47:21.856Z,27.51
2023-08-14T08:52:26.759Z,28.15
2023-08-14T08:57:31.059Z,28.61
2023-08-14T09:02:34.554Z,28.57
2023-08-14T09:07:38.066Z,27.36
2023-08-14T09:12:41.678Z,27.54
2023-08-14T09:27:15.538Z,29.63
2023-08-14T11:47:19.143Z,31.18
2023-08-14T11:57:09.656Z,31.70
2023-08-14T12:02:13.100Z,30.27
2023-08-14T12:07:19.705Z,31.03
2023-08-14T12:12:23.834Z,31.39
2023-08-14T12:17:27.593Z,31.58
2023-08-14T12:27:20.512Z,31.77
2023-08-14T12:32:25.853Z,31.50
2023-08-14T12:37:29.548Z,30.63
2023-08-14T12:42:33.014Z,31.54
2023-08-14T12:47:36.826Z,31.86
2023-08-14T12:57:27.114Z,31.77
2023-08-14T13:02:30.606Z,31.71
2023-08-14T13:17:09.480Z,32.00
2023-08-14T13:22:14.834Z,31.22
2023-08-14T13:32:03.246Z,31.61
2023-08-14T13:46:41.944Z,29.90
2023-08-14T13:51:46.523Z,30.97
2023-08-14T13:56:50.368Z,30.70
2023-08-14T14:01:53.893Z,29.62
2023-08-14T14:06:57.347Z,31.32
2023-08-14T14:26:32.907Z,30.85
2023-08-14T14:31:36.539Z,31.91
2023-08-14T14:36:39.955Z,31.42
2023-08-14T14:41:43.594Z,30.69
2023-08-14T14:46:47.059Z,31.37
2023-08-14T14:51:50.551Z,30.59
2023-08-14T14:56:53.866Z,30.30
2023-08-14T15:07:06.254Z,30.96
2023-08-14T15:12:09.877Z,29.96
2023-08-14T15:17:13.503Z,30.98
2023-08-14T15:22:17.242Z,30.94
2023-08-14T15:27:21.117Z,30.60
2023-08-14T15:32:24.879Z,28.90
2023-08-14T15:37:28.504Z,29.61
2023-08-14T15:42:32.355Z,30.44
2023-08-14T15:47:36.005Z,30.18
2023-08-14T15:52:39.491Z,30.87
2023-08-14T15:57:43.038Z,30.27
2023-08-14T16:02:46.942Z,29.68
2023-08-14T16:07:50.253Z,29.87
2023-08-14T16:12:54.187Z,30.61
2023-08-14T16:17:58.651Z,29.85
2023-08-14T16:23:02.112Z,29.71
2023-08-14T16:28:05.836Z,30.21
2023-08-14T16:33:09.853Z,30.04
2023-08-14T16:38:13.484Z,28.71
2023-08-14T16:43:17.189Z,29.26
2023-08-14T16:48:20.805Z,28.99
2023-08-14T16:53:24.350Z,29.63
2023-08-14T16:58:27.902Z,29.33
2023-08-14T17:03:32.097Z,29.67
2023-08-14T17:08:37.629Z,28.57
2023-08-14T17:13:42.540Z,28.36
2023-08-14T17:18:46.459Z,28.45
2023-08-14T17:23:49.875Z,28.06
2023-08-14T17:28:53.292Z,28.08
2023-08-14T17:33:56.821Z,27.27
2023-08-14T17:39:02.256Z,27.37
2023-08-14T17:44:05.824Z,27.71
2023-08-14T17:49:09.375Z,25.83
2023-08-14T17:54:12.845Z,27.11
2023-08-14T17:59:16.340Z,26.41
2023-08-14T18:04:19.933Z,26.17
2023-08-14T18:09:23.429Z,25.99
2023-08-14T18:14:26.883Z,26.24
2023-08-14T18:19:30.242Z,26.14
2023-08-14T18:24:33.569Z,25.30
2023-08-14T18:29:37.069Z,25.74
2023-08-14T18:34:41.406Z,25.75
2023-08-14T18:39:44.720Z,25.38
2023-08-14T18:44:48.092Z,24.62
2023-08-14T18:49:52.247Z,24.76
2023-08-14T18:54:55.574Z,24.26
2023-08-14T18:59:59.131Z,24.58
2023-08-14T19:05:02.488Z,24.64
2023-08-14T19:10:06.996Z,24.81
2023-08-14T19:15:10.599Z,24.55
2023-08-14T19:20:13.980Z,24.53
2023-08-14T19:25:17.507Z,23.75
2023-08-14T19:30:21.401Z,23.11
2023-08-14T19:35:24.927Z,23.48
2023-08-14T19:40:28.301Z,23.68
2023-08-14T19:45:32.004Z,23.59
2023-08-14T19:50:35.323Z,23.82
2023-08-14T19:55:40.484Z,23.55
2023-08-14T20:00:44.109Z,23.19
2023-08-14T20:05:50.941Z,22.78
2023-08-14T20:11:01.980Z,22.09
2023-08-14T20:16:05.705Z,22.12
2023-08-14T20:21:09.116Z,22.76
2023-08-14T20:26:12.577Z,22.47
2023-08-14T20:31:20.447Z,22.95
2023-08-14T20:36:26.928Z,20.33
2023-08-14T20:41:30.447Z,20.25
2023-08-14T20:46:34.077Z,19.27
2023-08-14T20:51:37.612Z,19.97
2023-08-14T20:56:40.945Z,21.08
2023-08-14T21:01:44.421Z,21.28
2023-08-14T21:06:48.022Z,21.07
2023-08-14T21:11:51.456Z,20.76
2023-08-14T21:16:54.915Z,20.84
2023-08-14T21:21:58.409Z,19.74
2023-08-14T21:27:01.807Z,20.19
2023-08-14T21:32:05.698Z,19.67
2023-08-14T21:37:09.720Z,20.46
2023-08-14T21:42:13.046Z,20.33
2023-08-14T21:47:17.057Z,20.48
2023-08-14T21:52:20.422Z,20.07
2023-08-14T21:57:23.903Z,19.99
2023-08-14T22:02:27.832Z,17.91
2023-08-14T22:07:31.628Z,19.29
2023-08-14T22:12:34.998Z,19.34
2023-08-14T22:17:38.819Z,19.85
2023-08-14T22:22:42.368Z,19.90
2023-08-14T22:27:46.323Z,19.31
2023-08-14T22:32:49.845Z,19.29
2023-08-14T22:37:53.371Z,18.61
2023-08-14T22:42:57.178Z,18.58
2023-08-14T22:48:00.730Z,19.18
2023-08-14T22:53:04.760Z,19.66
2023-08-14T22:58:08.222Z,20.38
2023-08-14T23:03:12.313Z,20.62
2023-08-14T23:08:15.712Z,20.35
2023-08-14T23:13:19.172Z,20.71
2023-08-14T23:18:22.521Z,21.21
2023-08-14T23:23:25.945Z,19.43
2023-08-14T23:28:29.767Z,20.93
2023-08-14T23:33:33.248Z,20.13
2023-08-14T23:38:36.614Z,19.13
2023-08-14T23:43:39.924Z,20.18
2023-08-14T23:48:43.391Z,20.23
2023-08-14T23:53:46.715Z,19.67
2023-08-14T23:58:50.480Z,19.62
